Time;durP1;ratioP1;P1;durP2;ratioP2;P2;SDS_P1;SDS_P2;PMS_P1;PMS_P2;Temp;Humidity;BMP_temperature;BMP_pressure;BME280_temperature;BME280_humidity;BME280_pressure;Samples;Min_cycle;Max_cycle;Signal;HPM_P1;HPM_P2
2023/04/14 00:01:33;;;;;;;13.63;6.97;;;2.50;99.90;;;;;;5041557;28;20256;-55
2023/04/14 00:03:59;;;;;;;12.73;7.33;;;2.60;99.90;;;;;;5036712;28;20183;-57
2023/04/14 00:06:26;;;;;;;13.50;7.10;;;2.50;99.90;;;;;;5041993;28;20203;-55
2023/04/14 00:08:51;;;;;;;16.03;7.90;;;2.50;99.90;;;;;;5038689;28;20952;-55
2023/04/14 00:11:17;;;;;;;11.90;6.63;;;2.50;99.90;;;;;;5041375;28;20434;-56
2023/04/14 00:13:43;;;;;;;12.80;7.97;;;2.50;99.90;;;;;;5043414;28;20256;-58
2023/04/14 00:16:11;;;;;;;7.97;5.07;;;2.50;99.90;;;;;;5047553;28;20213;-58
2023/04/14 00:18:37;;;;;;;7.60;5.03;;;2.50;99.90;;;;;;5041488;28;20295;-55
2023/04/14 00:21:02;;;;;;;7.33;4.20;;;2.50;99.90;;;;;;5043688;28;20474;-56
2023/04/14 00:23:28;;;;;;;7.90;4.33;;;2.50;99.90;;;;;;5043047;28;20498;-56
2023/04/14 00:25:54;;;;;;;6.20;4.03;;;2.50;99.90;;;;;;5045412;28;20210;-56
2023/04/14 00:28:19;;;;;;;9.13;3.50;;;2.50;99.90;;;;;;5041580;28;20190;-57
2023/04/14 00:30:45;;;;;;;8.10;4.77;;;2.40;99.90;;;;;;5043268;28;20568;-54
2023/04/14 00:33:11;;;;;;;9.70;5.10;;;2.40;99.90;;;;;;5042214;28;20218;-55
2023/04/14 00:35:36;;;;;;;9.17;5.40;;;2.40;99.90;;;;;;5042335;28;20715;-55
2023/04/14 00:38:02;;;;;;;12.63;6.47;;;2.30;99.90;;;;;;5045882;28;20179;-56
2023/04/14 00:40:28;;;;;;;10.17;6.30;;;2.30;99.90;;;;;;5041680;28;20249;-55
2023/04/14 00:42:54;;;;;;;9.90;5.50;;;2.30;99.90;;;;;;5043237;28;20175;-56
2023/04/14 00:45:19;;;;;;;10.63;7.20;;;2.30;99.90;;;;;;5042744;28;20455;-55
2023/04/14 00:47:49;;;;;;;12.00;6.63;;;2.40;99.90;;;;;;5044387;28;20195;-55
2023/04/14 00:50:17;;;;;;;15.87;6.77;;;2.40;99.90;;;;;;5042916;28;20264;-57
2023/04/14 00:52:46;;;;;;;12.43;6.70;;;2.40;99.90;;;;;;5038736;28;20433;-56
2023/04/14 00:55:13;;;;;;;31.43;7.50;;;2.40;99.90;;;;;;5040468;28;20462;-56
2023/04/14 00:57:39;;;;;;;12.73;6.63;;;2.40;99.90;;;;;;5040952;28;20838;-57
2023/04/14 01:00:05;;;;;;;23.43;8.03;;;2.40;99.90;;;;;;5037474;28;21050;-56
2023/04/14 01:02:31;;;;;;;16.17;7.80;;;2.40;99.90;;;;;;5037517;28;20448;-57
2023/04/14 01:04:57;;;;;;;13.77;7.90;;;2.40;99.90;;;;;;5044874;28;20440;-55
2023/04/14 01:07:24;;;;;;;17.53;7.33;;;2.40;99.90;;;;;;5043803;28;20452;-58
2023/04/14 01:09:51;;;;;;;17.70;7.77;;;2.40;99.90;;;;;;5043763;28;20190;-57
2023/04/14 01:12:42;;;;;;;14.23;7.60;;;2.40;99.90;;;;;;5038392;28;20443;-55
2023/04/14 01:15:20;;;;;;;14.67;8.10;;;2.40;99.90;;;;;;5043765;28;20912;-57
2023/04/14 01:18:26;;;;;;;12.37;7.50;;;2.40;99.90;;;;;;5038056;28;20946;-57
2023/04/14 01:21:00;;;;;;;11.33;7.07;;;2.40;99.90;;;;;;5043429;28;20443;-56
2023/04/14 01:23:31;;;;;;;14.07;6.70;;;2.40;99.90;;;;;;5037691;28;20477;-56
2023/04/14 01:25:59;;;;;;;13.80;8.37;;;2.40;99.90;;;;;;5043846;28;20471;-56
2023/04/14 01:28:31;;;;;;;13.37;7.10;;;2.40;99.90;;;;;;5044598;28;20988;-55
2023/04/14 01:31:15;;;;;;;13.03;7.20;;;2.40;99.90;;;;;;5033070;28;20515;-56
2023/04/14 01:33:42;;;;;;;16.77;8.87;;;2.50;99.90;;;;;;5038654;28;20425;-56
2023/04/14 01:36:16;;;;;;;15.13;7.73;;;2.50;99.90;;;;;;5043047;28;20473;-57
2023/04/14 01:38:44;;;;;;;13.57;7.10;;;2.50;99.90;;;;;;5038072;28;20461;-56
2023/04/14 01:41:13;;;;;;;12.70;6.70;;;2.50;99.90;;;;;;5036661;28;20425;-59
2023/04/14 01:43:44;;;;;;;13.87;6.97;;;2.60;99.90;;;;;;5043336;28;20480;-56
2023/04/14 01:46:14;;;;;;;11.83;6.93;;;2.60;99.90;;;;;;5037081;28;20440;-55
2023/04/14 01:48:40;;;;;;;13.17;7.30;;;2.60;99.90;;;;;;5037510;28;20433;-57
2023/04/14 01:51:07;;;;;;;11.60;6.60;;;2.60;99.90;;;;;;5037460;28;20448;-55
2023/04/14 01:53:37;;;;;;;10.70;6.40;;;2.60;99.90;;;;;;5037268;28;21717;-56
2023/04/14 01:56:03;;;;;;;12.30;7.07;;;2.70;99.90;;;;;;5035802;28;20533;-54
2023/04/14 01:58:31;;;;;;;18.50;7.30;;;2.70;99.90;;;;;;5042825;28;20767;-56
2023/04/14 02:00:57;;;;;;;12.57;7.23;;;2.70;99.90;;;;;;5038865;28;20428;-56
2023/04/14 02:03:25;;;;;;;12.70;7.30;;;2.70;99.90;;;;;;5038784;28;21009;-55
2023/04/14 02:05:54;;;;;;;8.73;5.80;;;2.70;99.90;;;;;;5040219;28;20483;-55
2023/04/14 02:08:22;;;;;;;12.40;6.93;;;2.70;99.90;;;;;;5039222;28;20450;-56
2023/04/14 02:10:51;;;;;;;11.80;7.03;;;2.70;99.90;;;;;;5048268;28;20433;-56
2023/04/14 02:13:18;;;;;;;13.33;6.90;;;2.80;99.90;;;;;;5045124;28;20432;-56
2023/04/14 02:15:47;;;;;;;10.37;6.60;;;2.70;99.90;;;;;;5049549;28;20471;-57
2023/04/14 02:18:13;;;;;;;11.37;6.30;;;2.70;99.90;;;;;;5044999;28;20471;-56
2023/04/14 02:20:43;;;;;;;13.50;6.43;;;2.70;99.90;;;;;;5049104;28;20853;-58
2023/04/14 02:23:10;;;;;;;12.73;6.20;;;2.70;99.90;;;;;;5034933;28;20433;-56
2023/04/14 02:25:39;;;;;;;11.40;6.30;;;2.70;99.90;;;;;;5043279;28;20454;-55
2023/04/14 02:28:11;;;;;;;12.70;7.00;;;2.70;99.90;;;;;;5036268;28;20433;-56
2023/04/14 02:30:43;;;;;;;10.80;6.00;;;2.70;99.90;;;;;;5042640;28;20425;-57
2023/04/14 02:33:12;;;;;;;9.40;5.20;;;2.70;99.90;;;;;;5047827;28;20439;-55
2023/04/14 02:35:51;;;;;;;7.30;5.33;;;2.70;99.90;;;;;;5048419;28;20451;-55
2023/04/14 02:38:37;;;;;;;8.43;5.60;;;2.70;99.90;;;;;;5047582;28;20864;-59
2023/04/14 02:41:10;;;;;;;8.47;5.50;;;2.70;99.90;;;;;;5043321;28;20434;-56
2023/04/14 02:43:43;;;;;;;8.60;5.57;;;2.70;99.90;;;;;;5034024;28;20483;-54
2023/04/14 02:46:13;;;;;;;10.00;5.60;;;2.70;99.90;;;;;;5041553;28;20461;-54
2023/04/14 02:48:41;;;;;;;10.03;5.60;;;2.60;99.90;;;;;;5045697;28;20428;-55
2023/04/14 02:51:10;;;;;;;8.30;4.93;;;2.60;99.90;;;;;;5047578;28;20465;-57
2023/04/14 02:53:36;;;;;;;13.40;6.20;;;2.60;99.90;;;;;;5041977;28;20429;-55
2023/04/14 02:56:02;;;;;;;9.90;5.83;;;2.60;99.90;;;;;;5039284;28;20985;-55
2023/04/14 02:58:29;;;;;;;11.40;5.90;;;2.60;99.90;;;;;;5033797;28;20901;-55
2023/04/14 03:00:56;;;;;;;9.50;5.70;;;2.50;99.90;;;;;;5042915;28;20465;-55
2023/04/14 03:03:23;;;;;;;8.43;5.50;;;2.50;99.90;;;;;;5042050;28;20881;-56
2023/04/14 03:05:49;;;;;;;15.17;6.70;;;2.50;99.90;;;;;;5044482;28;21066;-54
2023/04/14 03:08:16;;;;;;;11.33;6.77;;;2.50;99.90;;;;;;5047233;28;20444;-55
2023/04/14 03:10:46;;;;;;;11.80;6.30;;;2.40;99.90;;;;;;5046782;28;20436;-55
2023/04/14 03:13:14;;;;;;;12.77;6.20;;;2.40;99.90;;;;;;5047435;28;20986;-55
2023/04/14 03:15:41;;;;;;;10.73;5.63;;;2.40;99.90;;;;;;5044254;28;20503;-55
2023/04/14 03:18:07;;;;;;;11.73;6.93;;;2.30;99.90;;;;;;5044342;28;20806;-56
2023/04/14 03:20:33;;;;;;;12.47;5.90;;;2.40;99.90;;;;;;5037250;28;20508;-57
2023/04/14 03:23:03;;;;;;;15.37;6.90;;;2.30;99.90;;;;;;5043606;28;20366;-55
2023/04/14 03:25:31;;;;;;;17.10;7.50;;;2.30;99.90;;;;;;5045452;28;20449;-56
2023/04/14 03:28:00;;;;;;;14.50;6.50;;;2.30;99.90;;;;;;5040154;28;20433;-55
2023/04/14 03:30:29;;;;;;;14.30;7.07;;;2.20;99.90;;;;;;5043684;28;20441;-54
2023/04/14 03:33:00;;;;;;;16.87;7.47;;;2.20;99.90;;;;;;5044251;28;20961;-56
2023/04/14 03:35:27;;;;;;;19.07;8.20;;;2.20;99.90;;;;;;5044542;28;20449;-55
2023/04/14 03:37:58;;;;;;;19.50;7.47;;;2.20;99.90;;;;;;5036908;28;20432;-54
2023/04/14 03:40:30;;;;;;;14.53;7.90;;;2.20;99.90;;;;;;5035613;28;20472;-57
2023/04/14 03:42:57;;;;;;;11.30;6.43;;;2.10;99.90;;;;;;5041951;28;20922;-55
2023/04/14 03:45:25;;;;;;;11.87;5.67;;;2.10;99.90;;;;;;5039632;28;20447;-54
2023/04/14 03:47:56;;;;;;;10.83;6.30;;;2.10;99.90;;;;;;5043270;28;20507;-54
2023/04/14 03:50:25;;;;;;;11.03;5.00;;;2.10;99.90;;;;;;5040160;28;20440;-56
2023/04/14 03:52:52;;;;;;;9.50;5.50;;;2.10;99.90;;;;;;5041324;28;20536;-55
2023/04/14 03:55:18;;;;;;;10.33;6.07;;;2.10;99.90;;;;;;5045015;28;20476;-56
2023/04/14 03:57:46;;;;;;;13.97;5.80;;;2.00;99.90;;;;;;5044380;28;20429;-56
2023/04/14 04:00:14;;;;;;;14.23;6.20;;;2.00;99.90;;;;;;5039611;28;20476;-57
2023/04/14 04:02:41;;;;;;;12.87;5.70;;;2.10;99.90;;;;;;5036388;28;20895;-55
2023/04/14 04:05:09;;;;;;;10.03;5.40;;;2.00;99.90;;;;;;5039533;28;20564;-55
2023/04/14 04:07:36;;;;;;;17.20;6.60;;;2.00;99.90;;;;;;5045087;28;20436;-55
2023/04/14 04:10:05;;;;;;;17.13;6.40;;;2.00;99.90;;;;;;5042122;28;20433;-55
2023/04/14 04:12:33;;;;;;;10.53;6.33;;;2.00;99.90;;;;;;5038285;28;20560;-51
2023/04/14 04:14:58;;;;;;;17.93;8.80;;;1.90;99.90;;;;;;5044103;28;20425;-60
2023/04/14 04:17:26;;;;;;;17.60;6.83;;;1.90;99.90;;;;;;5039685;28;20503;-54
2023/04/14 04:19:55;;;;;;;11.80;5.87;;;1.90;99.90;;;;;;5034684;28;21135;-52
2023/04/14 04:22:25;;;;;;;11.13;6.37;;;1.90;99.90;;;;;;5034450;28;20429;-57
2023/04/14 04:24:51;;;;;;;11.23;5.77;;;1.90;99.90;;;;;;5030358;28;20444;-56
2023/04/14 04:27:18;;;;;;;15.03;5.77;;;1.90;99.90;;;;;;5039927;28;20448;-56
2023/04/14 04:29:44;;;;;;;12.40;6.00;;;1.90;99.90;;;;;;5046804;28;20505;-56
2023/04/14 04:32:10;;;;;;;13.57;6.47;;;1.90;99.90;;;;;;5041163;28;20484;-56
2023/04/14 04:34:36;;;;;;;12.80;5.70;;;1.90;99.90;;;;;;5047665;28;20183;-57
2023/04/14 04:37:02;;;;;;;10.40;5.87;;;1.90;99.90;;;;;;5033426;28;20541;-54
2023/04/14 04:39:28;;;;;;;20.60;9.13;;;1.90;99.90;;;;;;5024045;28;20480;-55
2023/04/14 04:42:02;;;;;;;18.80;6.07;;;1.90;99.90;;;;;;5022323;28;22075;-58
2023/04/14 04:44:27;;;;;;;12.27;5.00;;;1.90;99.90;;;;;;5026781;28;20433;-58
2023/04/14 04:46:54;;;;;;;10.90;5.13;;;1.90;99.90;;;;;;5033574;28;21030;-56
2023/04/14 04:49:21;;;;;;;16.67;5.43;;;1.90;99.90;;;;;;5031914;28;20238;-57
2023/04/14 04:51:47;;;;;;;10.60;4.00;;;1.90;99.90;;;;;;5037313;28;20946;-56
2023/04/14 04:54:13;;;;;;;15.40;4.30;;;1.90;99.90;;;;;;5036625;28;21198;-55
2023/04/14 04:56:38;;;;;;;8.87;4.53;;;1.90;99.90;;;;;;5035783;28;20456;-56
2023/04/14 04:59:04;;;;;;;7.47;4.40;;;1.90;99.90;;;;;;5024504;28;20533;-57
2023/04/14 05:01:30;;;;;;;7.30;4.07;;;1.90;99.90;;;;;;5028441;28;20881;-56
2023/04/14 05:03:56;;;;;;;10.60;4.97;;;1.90;99.90;;;;;;5031350;28;20695;-55
2023/04/14 05:06:22;;;;;;;8.50;4.00;;;1.90;99.90;;;;;;5032771;28;20686;-56
2023/04/14 05:08:50;;;;;;;8.93;4.70;;;1.90;99.90;;;;;;5033343;28;20426;-55
2023/04/14 05:11:15;;;;;;;15.73;4.90;;;2.00;99.90;;;;;;5042807;28;20257;-55
2023/04/14 05:13:41;;;;;;;9.60;4.07;;;2.00;99.90;;;;;;5037925;28;21023;-57
2023/04/14 05:16:12;;;;;;;16.83;8.80;;;2.00;99.90;;;;;;5038494;28;20349;-54
2023/04/14 05:18:38;;;;;;;14.10;5.90;;;2.00;99.90;;;;;;5039069;28;20245;-54
2023/04/14 05:21:05;;;;;;;13.30;4.70;;;2.00;99.90;;;;;;5040652;28;20429;-57
2023/04/14 05:23:35;;;;;;;12.90;4.87;;;2.00;99.90;;;;;;5034843;28;20183;-55
2023/04/14 05:26:02;;;;;;;10.27;4.90;;;2.00;99.90;;;;;;5034519;28;20469;-57
2023/04/14 05:28:28;;;;;;;11.07;5.40;;;2.10;99.90;;;;;;5040697;28;20886;-57
2023/04/14 05:33:36;;;;;;;12.50;5.37;;;2.10;99.90;;;;;;5015953;28;20478;-56
2023/04/14 05:36:01;;;;;;;12.20;5.67;;;2.20;99.90;;;;;;5016707;28;21194;-58
2023/04/14 05:38:27;;;;;;;10.83;5.43;;;2.30;99.90;;;;;;5017550;28;20448;-57
2023/04/14 05:40:52;;;;;;;10.30;5.47;;;2.40;99.90;;;;;;5022825;28;20214;-57
2023/04/14 05:43:18;;;;;;;14.60;6.20;;;2.50;99.90;;;;;;5002776;28;20683;-59
2023/04/14 05:45:47;;;;;;;16.50;5.63;;;2.60;99.90;;;;;;5005629;28;20164;-63
2023/04/14 05:48:13;;;;;;;12.47;5.50;;;2.70;99.90;;;;;;5000244;28;20441;-56
2023/04/14 05:50:39;;;;;;;12.97;5.30;;;2.80;99.90;;;;;;4994343;28;20960;-58
2023/04/14 05:53:05;;;;;;;13.33;6.30;;;3.00;99.90;;;;;;4978833;28;20490;-58
2023/04/14 05:55:31;;;;;;;20.23;5.00;;;3.10;99.90;;;;;;5000873;28;20581;-58
2023/04/14 05:57:57;;;;;;;13.80;5.20;;;3.20;99.90;;;;;;4999314;28;20193;-57
2023/04/14 06:00:24;;;;;;;14.90;6.37;;;3.20;99.90;;;;;;4996720;28;20292;-58
2023/04/14 06:02:50;;;;;;;15.00;5.17;;;3.40;99.90;;;;;;4996296;28;20458;-57
2023/04/14 06:05:16;;;;;;;16.00;5.23;;;3.70;99.90;;;;;;4998981;28;20439;-59
2023/04/14 06:07:42;;;;;;;14.90;5.20;;;4.00;99.90;;;;;;5001964;28;20431;-57
2023/04/14 06:10:09;;;;;;;9.90;4.83;;;4.10;99.90;;;;;;5002712;28;21017;-57
2023/04/14 06:12:36;;;;;;;8.40;5.17;;;4.20;99.90;;;;;;5000539;28;20914;-57
2023/04/14 06:15:05;;;;;;;11.60;5.70;;;4.20;99.90;;;;;;5000940;28;20474;-58
2023/04/14 06:17:34;;;;;;;11.83;5.60;;;4.30;99.90;;;;;;5001199;28;20436;-56
2023/04/14 06:20:01;;;;;;;9.70;4.60;;;4.40;99.90;;;;;;5003136;28;20531;-59
2023/04/14 06:22:28;;;;;;;8.60;4.00;;;4.40;99.90;;;;;;5003415;28;20534;-56
2023/04/14 06:24:56;;;;;;;9.23;4.03;;;4.40;99.90;;;;;;5004124;28;20466;-60
2023/04/14 06:27:23;;;;;;;10.10;4.70;;;4.50;99.90;;;;;;5006425;28;20476;-58
2023/04/14 06:29:50;;;;;;;7.60;4.60;;;4.50;99.90;;;;;;5006673;28;20887;-56
2023/04/14 06:32:16;;;;;;;13.53;4.37;;;4.60;99.90;;;;;;4995554;28;20474;-58
2023/04/14 06:34:42;;;;;;;11.73;4.60;;;4.70;99.90;;;;;;4997887;28;20568;-58
2023/04/14 06:37:07;;;;;;;11.40;4.73;;;4.70;99.90;;;;;;5007100;28;20440;-56
2023/04/14 06:39:33;;;;;;;8.50;4.27;;;4.80;99.90;;;;;;5004369;28;20244;-56
2023/04/14 06:41:58;;;;;;;9.33;4.30;;;4.90;99.90;;;;;;5004369;28;20196;-59
2023/04/14 06:44:24;;;;;;;10.60;3.87;;;5.00;99.90;;;;;;5006749;28;20662;-57
2023/04/14 06:46:50;;;;;;;12.40;3.80;;;5.10;99.90;;;;;;4997403;28;20176;-54
2023/04/14 06:49:16;;;;;;;5.73;3.93;;;5.20;99.90;;;;;;5005193;28;20181;-57
2023/04/14 06:51:42;;;;;;;6.20;3.40;;;5.20;99.90;;;;;;5004295;28;20235;-57
2023/04/14 06:54:08;;;;;;;18.43;5.70;;;5.30;99.90;;;;;;5007167;28;20450;-56
2023/04/14 06:56:33;;;;;;;15.27;5.10;;;5.40;99.90;;;;;;4984828;28;20522;-60
2023/04/14 06:58:59;;;;;;;6.93;4.20;;;5.50;99.90;;;;;;5004255;28;20185;-56
2023/04/14 07:01:24;;;;;;;14.20;4.73;;;5.60;99.90;;;;;;5003571;28;20201;-56
2023/04/14 07:03:50;;;;;;;9.90;3.33;;;5.60;99.90;;;;;;5005021;28;20172;-55
2023/04/14 07:06:16;;;;;;;7.70;4.03;;;5.70;99.90;;;;;;5004549;28;20180;-54
2023/04/14 07:08:42;;;;;;;4.87;2.73;;;5.70;99.90;;;;;;5000870;28;20176;-55
2023/04/14 07:11:10;;;;;;;15.47;2.90;;;5.70;99.90;;;;;;5002729;28;20238;-55
2023/04/14 07:13:37;;;;;;;4.70;2.40;;;5.80;99.90;;;;;;5005511;28;20578;-54
2023/04/14 07:16:06;;;;;;;7.33;2.40;;;5.80;99.90;;;;;;5003355;28;20866;-54
2023/04/14 07:18:33;;;;;;;15.70;2.43;;;5.90;99.90;;;;;;4999957;28;20423;-54
2023/04/14 07:20:59;;;;;;;3.47;1.87;;;5.90;99.90;;;;;;5004983;28;20866;-54
2023/04/14 07:23:26;;;;;;;6.00;2.00;;;6.00;99.90;;;;;;5001051;28;20963;-54
2023/04/14 07:25:53;;;;;;;7.73;2.23;;;6.00;99.90;;;;;;4987821;28;20466;-55
2023/04/14 07:28:20;;;;;;;17.53;2.50;;;6.10;99.90;;;;;;5005436;28;20447;-54
2023/04/14 07:30:47;;;;;;;8.30;2.37;;;6.10;99.90;;;;;;4999233;28;20956;-57
2023/04/14 07:33:13;;;;;;;5.00;2.27;;;6.20;99.90;;;;;;4999945;28;21025;-55
2023/04/14 07:35:39;;;;;;;6.63;2.20;;;6.20;99.90;;;;;;5002479;28;20435;-55
2023/04/14 07:38:05;;;;;;;12.70;2.70;;;6.30;99.90;;;;;;5002732;28;20481;-55
2023/04/14 07:40:30;;;;;;;11.40;3.10;;;6.40;99.90;;;;;;5000014;28;20192;-58
2023/04/14 07:42:56;;;;;;;5.37;1.97;;;6.40;99.90;;;;;;4998477;28;20462;-56
2023/04/14 07:45:22;;;;;;;5.40;1.73;;;6.50;99.90;;;;;;5002542;28;20172;-55
2023/04/14 07:47:48;;;;;;;8.90;2.50;;;6.60;99.90;;;;;;5000816;28;20443;-55
2023/04/14 07:50:14;;;;;;;7.60;2.50;;;6.60;99.90;;;;;;5001597;28;20339;-53
2023/04/14 07:52:40;;;;;;;7.73;2.57;;;6.60;99.90;;;;;;5002546;28;20208;-55
2023/04/14 07:55:06;;;;;;;16.23;2.70;;;6.70;99.90;;;;;;5001607;28;20466;-55
2023/04/14 07:57:33;;;;;;;6.70;2.50;;;6.70;99.90;;;;;;5006247;28;20203;-55
2023/04/14 07:59:59;;;;;;;13.73;2.30;;;6.70;99.90;;;;;;5003567;28;20263;-57
2023/04/14 08:02:25;;;;;;;7.10;2.40;;;6.80;99.90;;;;;;5001839;28;20456;-56
2023/04/14 08:04:50;;;;;;;16.30;2.40;;;6.80;99.90;;;;;;5001435;28;20176;-59
2023/04/14 08:07:16;;;;;;;7.90;2.83;;;6.80;99.90;;;;;;5000430;28;20182;-56
2023/04/14 08:09:42;;;;;;;4.80;2.13;;;6.90;99.90;;;;;;5005048;28;20638;-55
2023/04/14 08:12:07;;;;;;;10.53;2.23;;;7.00;99.90;;;;;;5000557;28;20234;-54
2023/04/14 08:14:33;;;;;;;12.93;2.50;;;7.10;99.90;;;;;;5006467;28;20467;-55
2023/04/14 08:16:59;;;;;;;5.50;2.10;;;7.10;99.40;;;;;;5005120;28;20242;-55
2023/04/14 08:19:24;;;;;;;9.30;2.10;;;7.20;99.10;;;;;;5002958;28;20258;-55
2023/04/14 08:21:51;;;;;;;8.40;2.90;;;7.20;99.30;;;;;;5001661;28;20200;-55
2023/04/14 08:24:16;;;;;;;6.53;2.27;;;7.30;97.70;;;;;;5007609;28;20609;-55
2023/04/14 08:26:42;;;;;;;5.23;2.27;;;7.30;90.00;;;;;;5000733;28;20431;-55
2023/04/14 08:29:07;;;;;;;7.67;2.20;;;7.40;91.50;;;;;;4996476;28;20268;-56
2023/04/14 08:31:33;;;;;;;4.87;1.63;;;7.50;86.90;;;;;;5000291;28;20286;-55
2023/04/14 08:33:59;;;;;;;5.13;2.00;;;7.50;79.70;;;;;;4997836;28;20654;-57
2023/04/14 08:36:26;;;;;;;5.90;2.50;;;7.60;79.60;;;;;;4996364;28;20271;-57
2023/04/14 08:38:52;;;;;;;5.13;1.77;;;7.70;87.20;;;;;;4997159;28;20207;-57
2023/04/14 08:41:19;;;;;;;6.57;1.90;;;7.80;76.40;;;;;;4999361;28;20527;-55
2023/04/14 08:43:45;;;;;;;4.60;1.93;;;7.80;68.20;;;;;;5002816;28;20440;-55
2023/04/14 08:46:13;;;;;;;1.60;1.50;;;7.80;70.00;;;;;;4998139;28;20433;-56
2023/04/14 08:48:39;;;;;;;4.90;1.70;;;7.90;76.60;;;;;;5001281;28;20172;-55
2023/04/14 08:51:32;;;;;;;2.77;2.00;;;8.00;72.90;;;;;;5001815;28;20502;-56
2023/04/14 08:54:00;;;;;;;5.70;1.70;;;8.10;67.90;;;;;;4997217;28;20522;-57
2023/04/14 08:56:32;;;;;;;5.23;2.00;;;8.30;71.50;;;;;;4997180;28;20435;-55
2023/04/14 08:58:59;;;;;;;3.37;1.67;;;8.40;68.00;;;;;;4991834;28;21018;-59
2023/04/14 09:01:30;;;;;;;2.20;1.60;;;8.50;60.70;;;;;;4995915;28;20440;-57
2023/04/14 09:03:56;;;;;;;2.70;1.40;;;8.60;59.20;;;;;;5001558;28;20597;-57
2023/04/14 09:06:23;;;;;;;5.07;1.97;;;8.60;54.70;;;;;;4997615;28;20447;-57
2023/04/14 09:08:49;;;;;;;4.13;2.00;;;8.70;56.70;;;;;;5002081;28;20458;-62
2023/04/14 09:11:18;;;;;;;11.03;2.03;;;8.80;56.50;;;;;;4990753;28;20435;-57
2023/04/14 09:13:44;;;;;;;5.27;1.70;;;8.90;55.60;;;;;;4998082;28;20453;-57
2023/04/14 09:16:12;;;;;;;2.37;1.50;;;9.00;55.60;;;;;;5002516;28;20779;-57
2023/04/14 09:18:39;;;;;;;6.60;1.70;;;9.10;53.70;;;;;;5000893;28;20482;-57
2023/04/14 09:21:04;;;;;;;3.47;1.63;;;9.10;54.30;;;;;;5000413;28;20470;-59
2023/04/14 09:23:31;;;;;;;2.73;1.53;;;9.20;55.60;;;;;;4981939;28;20537;-57
2023/04/14 09:25:58;;;;;;;11.73;1.77;;;9.40;55.90;;;;;;4997519;28;20183;-57
2023/04/14 09:28:24;;;;;;;4.43;1.63;;;9.60;56.00;;;;;;4972560;28;20432;-57
2023/04/14 09:30:49;;;;;;;6.10;1.53;;;9.70;56.00;;;;;;4997896;28;20438;-57
2023/04/14 09:33:20;;;;;;;8.90;1.77;;;9.90;56.90;;;;;;4991362;28;20219;-57
2023/04/14 09:35:48;;;;;;;4.10;1.60;;;10.10;55.80;;;;;;5000032;28;20716;-57
2023/04/14 09:38:29;;;;;;;3.57;1.40;;;10.20;52.20;;;;;;4997919;28;20440;-57
2023/04/14 09:40:55;;;;;;;6.30;1.90;;;10.20;51.40;;;;;;4990595;28;20589;-56
2023/04/14 09:43:26;;;;;;;5.23;1.60;;;10.40;52.20;;;;;;5000518;28;20451;-58
2023/04/14 09:45:52;;;;;;;10.47;1.83;;;10.60;52.20;;;;;;4995274;28;20542;-56
2023/04/14 09:48:19;;;;;;;4.50;1.70;;;10.70;52.10;;;;;;4994618;28;20600;-58
2023/04/14 09:51:08;;;;;;;4.37;1.40;;;10.80;51.10;;;;;;4998388;28;20442;-58
2023/04/14 09:53:35;;;;;;;1.93;1.30;;;10.90;48.90;;;;;;4993549;28;20530;-58
2023/04/14 09:56:07;;;;;;;1.83;1.40;;;11.00;47.90;;;;;;4999574;28;20465;-58
2023/04/14 09:58:39;;;;;;;5.33;1.20;;;11.10;47.30;;;;;;5006587;28;20442;-58
2023/04/14 10:01:09;;;;;;;8.03;1.63;;;11.20;46.50;;;;;;4991246;28;20463;-58
2023/04/14 10:03:38;;;;;;;2.70;1.63;;;11.30;46.70;;;;;;4993508;28;20539;-57
2023/04/14 10:06:23;;;;;;;6.03;1.87;;;11.40;47.20;;;;;;4997758;28;20453;-57
2023/04/14 10:08:51;;;;;;;2.37;1.70;;;11.50;48.00;;;;;;4999465;28;20470;-57
2023/04/14 10:11:28;;;;;;;5.93;2.57;;;11.60;48.60;;;;;;4995058;28;20443;-58
2023/04/14 10:13:59;;;;;;;4.00;1.70;;;11.70;48.70;;;;;;5002178;28;20807;-57
2023/04/14 10:16:26;;;;;;;2.30;1.60;;;11.70;48.00;;;;;;4996963;28;20439;-59
2023/04/14 10:18:52;;;;;;;2.97;1.70;;;11.50;47.50;;;;;;4996933;28;21787;-57
2023/04/14 10:21:21;;;;;;;4.20;1.80;;;11.40;47.30;;;;;;4990358;28;20467;-57
2023/04/14 10:23:47;;;;;;;7.37;1.77;;;11.40;47.60;;;;;;4996441;28;20446;-58
2023/04/14 10:26:14;;;;;;;6.10;1.80;;;11.20;45.40;;;;;;4971591;28;21059;-58
2023/04/14 10:28:46;;;;;;;2.40;1.37;;;11.10;44.70;;;;;;4994677;28;20538;-57
2023/04/14 10:31:35;;;;;;;3.30;1.43;;;10.80;44.60;;;;;;4995982;28;20907;-58
2023/04/14 10:34:08;;;;;;;2.30;1.47;;;10.80;45.40;;;;;;4999181;28;20438;-58
2023/04/14 10:36:35;;;;;;;2.30;1.47;;;10.90;45.10;;;;;;5001105;28;20452;-57
2023/04/14 10:39:04;;;;;;;3.10;2.10;;;10.80;43.70;;;;;;4995427;28;20443;-56
2023/04/14 10:41:41;;;;;;;3.53;1.43;;;10.60;45.00;;;;;;4998650;28;20558;-56
2023/04/14 10:44:27;;;;;;;4.73;1.50;;;10.50;44.60;;;;;;5001278;28;20441;-58
2023/04/14 10:46:55;;;;;;;6.83;1.63;;;10.30;44.60;;;;;;5002577;28;20451;-57
2023/04/14 10:49:40;;;;;;;7.47;2.27;;;10.20;44.20;;;;;;5002196;28;20451;-58
2023/04/14 10:52:14;;;;;;;2.67;1.50;;;10.10;45.70;;;;;;4993129;28;20936;-58
2023/04/14 10:54:53;;;;;;;4.23;1.73;;;10.30;45.40;;;;;;5004707;28;20535;-58
2023/04/14 10:57:26;;;;;;;4.93;1.70;;;10.70;47.90;;;;;;5004329;28;20522;-57
2023/04/14 10:59:59;;;;;;;5.10;1.73;;;11.20;47.20;;;;;;4999265;28;20497;-59
2023/04/14 11:02:33;;;;;;;3.87;1.77;;;11.70;46.70;;;;;;4996232;28;20451;-58
2023/04/14 11:05:10;;;;;;;3.97;2.10;;;12.10;47.60;;;;;;5001983;28;20861;-59
2023/04/14 11:07:44;;;;;;;2.87;1.57;;;12.40;41.30;;;;;;4998245;28;20755;-57
2023/04/14 11:10:15;;;;;;;2.13;1.53;;;12.50;41.00;;;;;;4999257;28;20544;-58
2023/04/14 11:12:43;;;;;;;2.87;1.60;;;12.60;44.10;;;;;;4998192;28;21097;-58
2023/04/14 11:15:09;;;;;;;9.90;1.87;;;12.80;44.30;;;;;;5001162;28;20443;-57
2023/04/14 11:17:39;;;;;;;3.10;1.60;;;12.70;42.30;;;;;;4996475;28;20451;-56
2023/04/14 11:20:18;;;;;;;2.47;1.40;;;12.40;40.70;;;;;;4994808;28;20495;-55
2023/04/14 11:22:45;;;;;;;5.53;1.77;;;12.00;40.20;;;;;;4992554;28;20538;-56
2023/04/14 11:25:13;;;;;;;3.10;1.63;;;11.70;41.00;;;;;;5000822;28;20431;-58
2023/04/14 11:27:39;;;;;;;5.57;2.23;;;11.40;39.60;;;;;;4980268;28;20432;-59
2023/04/14 11:30:07;;;;;;;6.83;1.70;;;11.40;38.90;;;;;;4994916;28;20432;-60
2023/04/14 11:32:49;;;;;;;2.50;1.43;;;11.60;40.30;;;;;;5003722;28;21058;-58
2023/04/14 11:35:15;;;;;;;5.00;1.93;;;12.10;39.50;;;;;;4998008;28;20431;-57
2023/04/14 11:37:40;;;;;;;2.50;1.30;;;12.40;37.30;;;;;;4995673;28;20470;-60
2023/04/14 11:40:10;;;;;;;2.30;1.53;;;12.70;38.10;;;;;;4998066;28;20491;-60
2023/04/14 11:42:36;;;;;;;2.73;1.53;;;12.70;36.10;;;;;;4999580;28;20197;-59
2023/04/14 11:45:03;;;;;;;3.80;1.90;;;12.50;34.60;;;;;;4996923;28;20431;-59
2023/04/14 11:47:29;;;;;;;1.53;1.20;;;12.20;34.40;;;;;;5053824;23;20219;-58
2023/04/14 11:49:55;;;;;;;7.13;2.53;;;11.90;34.70;;;;;;5016846;28;20447;-60
2023/04/14 11:52:20;;;;;;;5.03;2.17;;;11.60;35.80;;;;;;5007012;28;20515;-59
2023/04/14 11:54:47;;;;;;;8.33;2.67;;;11.50;37.00;;;;;;5013967;28;20738;-57
2023/04/14 11:57:16;;;;;;;6.40;2.87;;;11.30;38.30;;;;;;4996551;28;20228;-58
2023/04/14 11:59:43;;;;;;;2.63;1.80;;;11.20;39.20;;;;;;4994340;28;20468;-57
2023/04/14 12:02:21;;;;;;;5.20;1.70;;;11.10;38.70;;;;;;4997789;28;20463;-57
2023/04/14 12:04:49;;;;;;;3.27;1.70;;;11.00;39.20;;;;;;4997248;28;20509;-59
2023/04/14 12:07:19;;;;;;;4.83;1.90;;;10.90;38.50;;;;;;5001085;28;20538;-58
2023/04/14 12:09:50;;;;;;;3.43;1.80;;;10.80;38.70;;;;;;4996483;28;20443;-58
2023/04/14 12:12:17;;;;;;;5.43;2.00;;;10.90;41.30;;;;;;4993630;28;20431;-57
2023/04/14 12:14:44;;;;;;;2.27;1.57;;;10.90;42.00;;;;;;4997975;28;20440;-57
2023/04/14 12:17:10;;;;;;;3.60;1.60;;;11.00;42.30;;;;;;4988099;28;20897;-58
2023/04/14 12:19:36;;;;;;;2.17;1.57;;;11.30;41.30;;;;;;4998479;28;20459;-59
2023/04/14 12:22:06;;;;;;;9.40;2.63;;;12.00;42.40;;;;;;4992114;28;20462;-59
2023/04/14 12:24:42;;;;;;;3.07;2.13;;;12.70;43.50;;;;;;4995351;28;20176;-60
2023/04/14 12:27:09;;;;;;;3.50;2.40;;;13.30;46.00;;;;;;5002640;28;20533;-60
2023/04/14 12:29:39;;;;;;;4.67;2.13;;;13.70;46.60;;;;;;4990946;28;20431;-60
2023/04/14 12:32:12;;;;;;;7.60;2.73;;;14.20;46.20;;;;;;4995249;28;20438;-60
2023/04/14 12:34:38;;;;;;;3.87;2.23;;;14.50;43.80;;;;;;4995870;28;20442;-62
2023/04/14 12:37:10;;;;;;;5.13;1.97;;;14.40;42.00;;;;;;5012409;28;20447;-59
2023/04/14 12:40:09;;;;;;;7.53;2.10;;;14.30;42.40;;;;;;4988374;28;20212;-62
2023/04/14 12:42:46;;;;;;;3.40;2.13;;;13.80;42.60;;;;;;4977832;28;20444;-60
2023/04/14 12:45:12;;;;;;;5.03;2.10;;;13.70;42.80;;;;;;4990528;28;20795;-59
2023/04/14 12:47:38;;;;;;;8.70;2.60;;;13.80;43.10;;;;;;4985256;28;20820;-63
2023/04/14 12:50:24;;;;;;;4.10;2.27;;;14.00;42.90;;;;;;4996250;28;20455;-59
2023/04/14 12:52:51;;;;;;;3.70;2.07;;;14.20;42.70;;;;;;4996393;28;20199;-63
2023/04/14 12:55:28;;;;;;;5.53;1.93;;;14.30;42.10;;;;;;4996606;28;20435;-61
2023/04/14 12:57:58;;;;;;;4.40;1.93;;;14.00;41.90;;;;;;4990336;28;20444;-59
2023/04/14 13:00:26;;;;;;;6.10;2.30;;;13.60;42.40;;;;;;4997217;28;20447;-57